Americus, Kansas
Current Conditions -  °F | °C
As of 2:53 PM on Friday 28 Nov 2014 (Local Time) from KEMP Reporting Station
Clear Clear  
Wind Chill: 63°   Ceiling: Unl
Heat Index: 63°   Visibility: 10mi
Dew Point: 33°   Wind: 18mph
Humidity: 33%   Direction: 200°SSW
Pressure: 29.8"   Gusts: NA
Location:  38.51°N, 96.26°W
Report Text: KEMP 282053Z AUTO 20016KT 10SM CLR 17/01 A2980 RMK AO2 PK WND 21026/2022 SLP096 T01720006 56026
Loading
Personal Weather Stations






























Interactive Weather Map New forecast layout! Learn more

10-Day Weather Forecast

Advertisements
Track Severe Weather on mobile